Time;durP1;ratioP1;P1;durP2;ratioP2;P2;SDS_P1;SDS_P2;PMS_P1;PMS_P2;Temp;Humidity;BMP_temperature;BMP_pressure;BME280_temperature;BME280_humidity;BME280_pressure;Samples;Min_cycle;Max_cycle;Signal;HPM_P1;HPM_P2
2022/09/20 00:01:15;;;;;;;3.53;1.80;;;12.10;99.90;;;;;;5051872;28;20298;-55
2022/09/20 00:03:43;;;;;;;4.80;1.73;;;12.20;99.90;;;;;;5051063;28;20306;-53
2022/09/20 00:06:13;;;;;;;2.93;1.77;;;12.20;99.90;;;;;;5051534;28;20225;-54
2022/09/20 00:08:41;;;;;;;3.00;1.83;;;12.20;99.90;;;;;;5051799;28;20270;-54
2022/09/20 00:11:10;;;;;;;2.63;1.70;;;12.20;99.90;;;;;;5051688;28;20297;-54
2022/09/20 00:13:38;;;;;;;3.10;1.40;;;12.20;99.90;;;;;;5051033;28;20680;-54
2022/09/20 00:16:05;;;;;;;4.73;1.83;;;12.20;99.90;;;;;;5051087;28;20229;-55
2022/09/20 00:18:32;;;;;;;2.70;1.50;;;12.20;99.90;;;;;;5051780;28;20209;-54
2022/09/20 00:20:58;;;;;;;2.97;1.60;;;12.20;99.90;;;;;;5051788;28;20292;-54
2022/09/20 00:23:26;;;;;;;2.40;1.53;;;12.10;99.90;;;;;;5051000;28;20268;-54
2022/09/20 00:25:57;;;;;;;3.03;1.53;;;12.00;99.90;;;;;;5053819;28;20197;-54
2022/09/20 00:28:25;;;;;;;2.83;1.70;;;11.90;99.90;;;;;;5055281;28;20251;-54
2022/09/20 00:30:52;;;;;;;1.93;1.40;;;11.80;99.90;;;;;;5055336;28;20263;-54
2022/09/20 00:33:19;;;;;;;2.80;1.60;;;11.70;99.90;;;;;;5054908;28;20263;-53
2022/09/20 00:35:45;;;;;;;4.87;1.40;;;11.60;99.90;;;;;;5055088;28;20700;-54
2022/09/20 00:38:13;;;;;;;1.73;1.43;;;11.60;99.90;;;;;;5055169;28;20567;-54
2022/09/20 00:40:41;;;;;;;2.57;1.77;;;11.60;99.90;;;;;;5055296;28;20292;-54
2022/09/20 00:43:14;;;;;;;3.80;1.80;;;11.60;99.90;;;;;;5054567;28;20208;-54
2022/09/20 00:45:42;;;;;;;3.97;1.70;;;11.50;99.90;;;;;;5055514;28;20296;-54
2022/09/20 00:48:13;;;;;;;2.77;1.90;;;11.50;99.90;;;;;;5055340;28;20723;-54
2022/09/20 00:50:42;;;;;;;5.40;1.90;;;11.60;99.90;;;;;;5055376;28;20202;-54
2022/09/20 00:53:12;;;;;;;5.70;1.93;;;11.60;99.90;;;;;;5054492;28;20201;-54
2022/09/20 00:55:46;;;;;;;3.43;1.60;;;11.70;99.90;;;;;;5054904;28;20225;-53
2022/09/20 00:58:13;;;;;;;3.67;1.60;;;11.70;99.90;;;;;;5055330;28;20202;-54
2022/09/20 01:00:42;;;;;;;4.10;1.73;;;11.80;99.90;;;;;;5055240;28;20210;-54
2022/09/20 01:03:12;;;;;;;3.97;1.70;;;11.80;99.90;;;;;;5054369;28;20209;-54
2022/09/20 01:05:39;;;;;;;3.30;1.70;;;11.90;99.90;;;;;;5055069;28;20206;-54
2022/09/20 01:08:07;;;;;;;4.60;1.80;;;11.90;99.90;;;;;;5054628;28;20226;-53
2022/09/20 01:10:34;;;;;;;2.77;1.80;;;11.90;99.90;;;;;;5055071;28;20201;-55
2022/09/20 01:13:02;;;;;;;2.40;1.40;;;11.90;99.90;;;;;;5054660;28;20271;-54
2022/09/20 01:15:30;;;;;;;2.37;1.70;;;11.90;99.90;;;;;;5054783;28;20271;-54
2022/09/20 01:18:01;;;;;;;3.93;1.60;;;11.90;99.90;;;;;;5054383;28;20237;-54
2022/09/20 01:20:31;;;;;;;3.77;1.73;;;11.90;99.90;;;;;;5054477;28;20697;-54
2022/09/20 01:23:16;;;;;;;4.43;1.60;;;12.00;99.90;;;;;;5054416;28;20209;-54
2022/09/20 01:26:09;;;;;;;1.77;1.50;;;12.00;99.90;;;;;;5054638;28;20252;-55
2022/09/20 01:28:41;;;;;;;4.03;2.00;;;12.00;99.90;;;;;;5054779;28;20194;-54
2022/09/20 01:31:14;;;;;;;3.97;1.83;;;12.10;99.90;;;;;;5054440;28;20205;-54
2022/09/20 01:33:47;;;;;;;2.50;1.77;;;12.00;99.90;;;;;;5054153;28;20209;-54
2022/09/20 01:36:24;;;;;;;2.07;1.80;;;12.10;99.90;;;;;;5053743;28;20237;-54
2022/09/20 01:39:00;;;;;;;2.40;1.63;;;12.10;99.90;;;;;;5054439;28;20292;-54
2022/09/20 01:41:33;;;;;;;3.20;2.20;;;12.10;99.90;;;;;;5054261;28;20700;-54
2022/09/20 01:44:12;;;;;;;2.83;1.87;;;12.10;99.90;;;;;;5053881;28;20339;-54
2022/09/20 01:46:42;;;;;;;4.07;2.10;;;12.10;99.90;;;;;;5054207;28;20295;-55
2022/09/20 01:49:25;;;;;;;4.20;2.03;;;12.10;99.90;;;;;;5054278;28;20208;-54
2022/09/20 01:52:31;;;;;;;6.83;2.30;;;12.10;99.90;;;;;;5054120;28;20204;-54
2022/09/20 01:55:34;;;;;;;2.57;1.80;;;12.20;99.90;;;;;;5054052;28;20213;-54
2022/09/20 01:58:43;;;;;;;4.60;2.00;;;12.10;99.90;;;;;;5053755;28;20230;-54
2022/09/20 02:01:45;;;;;;;3.17;1.77;;;12.10;99.90;;;;;;4955389;28;20232;-54
2022/09/20 02:04:37;;;;;;;3.10;1.63;;;12.10;99.90;;;;;;4961401;28;20768;-54
2022/09/20 02:07:22;;;;;;;2.60;1.77;;;12.10;99.90;;;;;;5053572;28;20576;-54
2022/09/20 02:10:19;;;;;;;3.50;1.77;;;12.10;99.90;;;;;;5053898;28;20217;-54
2022/09/20 02:12:58;;;;;;;3.13;1.73;;;12.10;99.90;;;;;;5018317;28;20252;-54
2022/09/20 02:15:46;;;;;;;2.70;1.67;;;12.20;99.90;;;;;;5053883;28;20201;-54
2022/09/20 02:18:33;;;;;;;4.87;2.23;;;12.20;99.90;;;;;;5053462;28;20312;-54
2022/09/20 02:21:11;;;;;;;4.33;2.00;;;12.20;99.90;;;;;;5053345;28;20267;-54
2022/09/20 02:23:48;;;;;;;2.87;1.67;;;12.20;99.90;;;;;;5052752;28;20802;-54
2022/09/20 02:26:27;;;;;;;6.37;4.23;;;12.20;99.90;;;;;;5053453;28;20221;-54
2022/09/20 02:29:01;;;;;;;4.10;2.73;;;12.20;99.90;;;;;;5053415;28;20263;-54
2022/09/20 02:31:43;;;;;;;5.00;2.47;;;12.30;99.90;;;;;;5053438;28;20220;-56
2022/09/20 02:34:38;;;;;;;5.80;2.50;;;12.20;99.90;;;;;;5053234;28;20206;-54
2022/09/20 02:37:24;;;;;;;5.67;2.47;;;12.20;99.90;;;;;;5053474;28;20233;-54
2022/09/20 02:40:02;;;;;;;4.97;2.30;;;12.30;99.90;;;;;;5053511;28;20296;-54
2022/09/20 02:42:36;;;;;;;4.13;2.40;;;12.40;99.90;;;;;;5052716;28;20209;-54
2022/09/20 02:45:09;;;;;;;5.13;2.30;;;12.40;99.90;;;;;;5053034;28;20205;-54
2022/09/20 02:47:38;;;;;;;4.57;2.77;;;12.40;99.90;;;;;;5052980;28;20291;-54
2022/09/20 02:50:32;;;;;;;2.67;2.00;;;12.40;99.90;;;;;;5052007;28;20282;-54
2022/09/20 02:53:14;;;;;;;5.30;2.10;;;12.40;99.90;;;;;;5030057;28;20213;-54
2022/09/20 02:55:48;;;;;;;4.13;2.63;;;12.40;99.90;;;;;;5052749;28;20629;-54
2022/09/20 02:58:30;;;;;;;6.30;2.27;;;12.40;99.90;;;;;;5052751;28;20279;-55
2022/09/20 03:01:05;;;;;;;6.53;2.20;;;12.30;99.90;;;;;;5052821;28;20668;-54
2022/09/20 03:03:40;;;;;;;6.37;2.20;;;12.30;99.90;;;;;;5052273;28;20266;-54
2022/09/20 03:06:17;;;;;;;5.37;2.10;;;12.20;99.90;;;;;;5052582;28;20205;-54
2022/09/20 03:08:54;;;;;;;5.40;2.30;;;12.20;99.90;;;;;;5052058;28;20212;-54
2022/09/20 03:11:28;;;;;;;5.50;2.30;;;12.10;99.90;;;;;;5052604;28;20213;-54
2022/09/20 03:14:11;;;;;;;5.10;2.20;;;12.10;99.90;;;;;;5051994;28;20209;-54
2022/09/20 03:16:48;;;;;;;16.13;12.93;;;12.20;99.90;;;;;;5052181;28;20233;-54
2022/09/20 03:19:25;;;;;;;32.67;25.20;;;12.20;99.90;;;;;;5052220;28;20255;-54
2022/09/20 03:22:00;;;;;;;8.90;5.23;;;12.20;99.90;;;;;;5052485;28;20255;-54
2022/09/20 03:24:39;;;;;;;9.10;3.20;;;12.20;99.90;;;;;;5051820;28;20213;-55
2022/09/20 03:27:16;;;;;;;5.43;2.73;;;12.20;99.90;;;;;;5052154;28;20304;-54
2022/09/20 03:29:58;;;;;;;8.07;2.90;;;12.30;99.90;;;;;;5052065;28;20275;-54
2022/09/20 03:32:41;;;;;;;5.30;2.53;;;12.30;99.90;;;;;;5051481;28;20211;-53
2022/09/20 03:35:22;;;;;;;4.93;2.43;;;12.30;99.90;;;;;;5052058;28;20209;-55
2022/09/20 03:38:03;;;;;;;6.37;2.60;;;12.40;99.90;;;;;;5051739;28;20701;-54
2022/09/20 03:41:07;;;;;;;4.73;2.97;;;12.40;99.90;;;;;;5052253;28;20190;-55
2022/09/20 03:43:51;;;;;;;6.10;2.67;;;12.30;99.90;;;;;;5051353;28;20224;-55
2022/09/20 03:46:20;;;;;;;6.87;2.90;;;12.40;99.90;;;;;;5052124;28;20225;-55
2022/09/20 03:49:24;;;;;;;6.17;2.83;;;12.40;99.90;;;;;;5051907;28;20240;-54
2022/09/20 03:52:00;;;;;;;5.90;2.47;;;12.50;99.90;;;;;;5051990;28;20205;-54
2022/09/20 03:54:52;;;;;;;6.83;2.60;;;12.50;99.90;;;;;;5051240;28;20205;-54
2022/09/20 03:57:43;;;;;;;5.37;2.43;;;12.50;99.90;;;;;;5052007;28;20268;-55
2022/09/20 04:00:32;;;;;;;5.13;2.30;;;12.50;99.90;;;;;;5030561;28;20206;-54
2022/09/20 04:03:21;;;;;;;4.17;2.00;;;12.60;99.90;;;;;;5051147;28;20210;-54
2022/09/20 04:06:02;;;;;;;4.07;2.27;;;12.60;99.90;;;;;;5051571;28;20627;-55
2022/09/20 04:08:56;;;;;;;9.37;2.60;;;12.70;99.90;;;;;;5051663;28;20239;-54
2022/09/20 04:11:31;;;;;;;4.47;2.40;;;12.70;99.90;;;;;;5051396;28;20217;-54
2022/09/20 04:14:09;;;;;;;7.00;2.40;;;12.70;99.90;;;;;;5051103;28;20212;-53
2022/09/20 04:16:42;;;;;;;4.50;2.07;;;12.70;99.90;;;;;;5051333;28;20229;-53
2022/09/20 04:19:17;;;;;;;4.57;2.57;;;12.70;99.90;;;;;;5051564;28;20251;-54
2022/09/20 04:21:53;;;;;;;5.90;2.50;;;12.70;99.90;;;;;;5051424;28;20201;-53
2022/09/20 04:24:25;;;;;;;8.07;3.20;;;12.70;99.90;;;;;;5051075;28;20216;-54
2022/09/20 04:26:58;;;;;;;7.10;2.80;;;12.70;99.90;;;;;;5051604;28;20226;-54
2022/09/20 04:29:34;;;;;;;7.53;2.93;;;12.70;99.90;;;;;;5051601;28;20216;-55
2022/09/20 04:32:11;;;;;;;7.17;2.43;;;12.60;99.90;;;;;;5051448;28;20255;-53
2022/09/20 04:37:31;;;;;;;5.23;2.37;;;12.60;99.90;;;;;;5051421;28;20232;-54
2022/09/20 04:40:12;;;;;;;8.17;3.50;;;12.50;99.90;;;;;;5051660;28;20251;-54
2022/09/20 04:43:18;;;;;;;5.50;2.57;;;12.40;99.90;;;;;;5051538;28;20215;-55
2022/09/20 04:46:16;;;;;;;5.10;2.40;;;12.50;99.90;;;;;;4997265;28;20267;-56
2022/09/20 04:49:22;;;;;;;10.97;6.17;;;12.40;99.90;;;;;;5051326;28;20581;-54
2022/09/20 04:52:13;;;;;;;7.10;2.60;;;12.30;99.90;;;;;;5051429;28;20723;-54
2022/09/20 04:55:12;;;;;;;7.03;4.30;;;12.20;99.90;;;;;;5050678;28;20235;-54
2022/09/20 04:58:15;;;;;;;5.33;3.27;;;12.20;99.90;;;;;;5051253;28;20234;-55
2022/09/20 05:00:55;;;;;;;8.93;3.40;;;12.00;99.90;;;;;;5014079;28;20568;-55
2022/09/20 05:04:05;;;;;;;13.50;7.77;;;11.90;99.90;;;;;;5050428;28;20629;-55
2022/09/20 05:07:06;;;;;;;6.33;2.30;;;11.80;99.90;;;;;;5051417;28;20230;-55
2022/09/20 05:09:58;;;;;;;9.67;5.67;;;11.60;99.90;;;;;;5051206;28;20216;-55
2022/09/20 05:12:37;;;;;;;6.27;2.67;;;11.50;99.90;;;;;;5052071;28;20220;-55
2022/09/20 05:15:17;;;;;;;7.83;3.67;;;11.50;99.90;;;;;;5054901;28;20321;-54
2022/09/20 05:18:09;;;;;;;5.70;3.40;;;11.40;99.90;;;;;;5085537;22;20684;-56
2022/09/20 05:21:00;;;;;;;8.97;4.07;;;11.50;99.90;;;;;;5065031;28;20287;-56
2022/09/20 05:23:48;;;;;;;15.63;8.53;;;11.50;99.90;;;;;;5076004;28;20672;-57
2022/09/20 05:26:24;;;;;;;10.17;3.77;;;11.60;99.90;;;;;;5076522;28;20216;-57
2022/09/20 05:28:56;;;;;;;8.83;4.03;;;11.60;99.90;;;;;;5076102;28;20236;-56
2022/09/20 05:31:36;;;;;;;7.13;4.13;;;11.60;99.90;;;;;;5075823;28;20201;-57
2022/09/20 05:34:16;;;;;;;9.17;4.43;;;11.70;99.90;;;;;;5075353;28;20296;-56
2022/09/20 05:36:55;;;;;;;9.77;3.33;;;11.70;99.90;;;;;;5078358;28;20236;-57
2022/09/20 05:39:33;;;;;;;4.47;2.40;;;11.80;99.90;;;;;;5077380;28;20216;-56
2022/09/20 05:42:06;;;;;;;7.07;4.03;;;11.90;99.90;;;;;;5075556;28;20212;-56
2022/09/20 05:44:53;;;;;;;8.60;3.03;;;11.90;99.90;;;;;;5074571;28;20208;-56
2022/09/20 05:47:24;;;;;;;9.57;3.40;;;12.00;99.90;;;;;;5074990;28;20735;-56
2022/09/20 05:49:59;;;;;;;6.57;2.73;;;12.10;99.90;;;;;;5075140;28;20200;-56
2022/09/20 05:52:41;;;;;;;4.40;3.10;;;12.30;99.90;;;;;;5075094;28;20205;-57
2022/09/20 05:55:39;;;;;;;6.73;3.33;;;12.40;99.90;;;;;;5075096;28;20204;-56
2022/09/20 05:58:23;;;;;;;5.60;2.40;;;12.60;99.90;;;;;;5074903;28;20240;-56
2022/09/20 06:00:55;;;;;;;5.73;2.80;;;12.70;99.90;;;;;;5074910;28;20205;-57
2022/09/20 06:03:32;;;;;;;7.73;2.53;;;12.70;99.90;;;;;;5074382;28;20291;-57
2022/09/20 06:06:08;;;;;;;7.23;2.10;;;12.80;99.90;;;;;;5075168;28;20695;-57
2022/09/20 06:09:02;;;;;;;6.67;2.00;;;12.90;99.90;;;;;;5074521;28;20235;-57
2022/09/20 06:11:46;;;;;;;5.67;2.60;;;13.10;99.90;;;;;;5075008;28;20205;-55
2022/09/20 06:14:21;;;;;;;6.17;3.13;;;13.20;99.90;;;;;;5073892;28;20232;-56
2022/09/20 06:16:55;;;;;;;5.20;2.37;;;13.20;99.90;;;;;;5074323;28;20331;-56
2022/09/20 06:19:33;;;;;;;6.33;2.10;;;13.20;99.90;;;;;;5074377;28;20664;-58
2022/09/20 06:22:05;;;;;;;6.77;2.30;;;13.20;99.90;;;;;;5073937;28;20571;-57
2022/09/20 06:24:38;;;;;;;9.50;2.77;;;13.20;99.90;;;;;;5073863;28;20201;-58
2022/09/20 06:27:10;;;;;;;3.97;2.00;;;13.30;99.90;;;;;;5073563;28;20232;-58
2022/09/20 06:29:40;;;;;;;5.10;2.10;;;13.80;99.90;;;;;;5073890;28;20205;-58
2022/09/20 06:32:07;;;;;;;5.03;1.80;;;14.60;99.90;;;;;;5073917;28;20581;-59
2022/09/20 06:34:34;;;;;;;7.43;3.50;;;14.90;99.90;;;;;;5072950;28;20216;-57
2022/09/20 06:42:53;;;;;;;5.60;2.40;;;14.90;99.90;;;;;;5073113;28;20254;-58
2022/09/20 06:45:20;;;;;;;6.33;2.47;;;14.90;99.90;;;;;;5073594;28;20622;-57
2022/09/20 06:47:47;;;;;;;5.97;2.50;;;15.10;99.90;;;;;;5073288;28;20221;-58
2022/09/20 06:50:16;;;;;;;3.83;1.90;;;15.40;99.90;;;;;;5074007;28;20201;-58
2022/09/20 06:52:44;;;;;;;5.57;2.10;;;15.60;99.90;;;;;;5072932;28;20270;-58
2022/09/20 06:55:18;;;;;;;4.53;1.73;;;15.60;99.90;;;;;;5073441;28;20291;-58
2022/09/20 06:57:45;;;;;;;5.13;1.80;;;15.60;99.90;;;;;;5073349;28;20255;-58
2022/09/20 07:00:14;;;;;;;8.67;2.37;;;15.50;99.90;;;;;;5073527;28;20212;-58
2022/09/20 07:02:41;;;;;;;8.43;2.17;;;15.30;99.90;;;;;;5072964;28;20266;-58
2022/09/20 07:05:14;;;;;;;5.20;2.27;;;15.10;99.90;;;;;;5073706;28;20219;-58
2022/09/20 07:07:42;;;;;;;6.83;2.13;;;15.00;99.90;;;;;;5073221;28;20411;-58
2022/09/20 07:10:09;;;;;;;4.87;2.07;;;14.90;99.90;;;;;;5073184;28;20205;-58
2022/09/20 07:12:38;;;;;;;6.60;2.53;;;14.90;99.90;;;;;;5072676;28;20213;-57
2022/09/20 07:15:06;;;;;;;6.77;2.00;;;15.00;99.90;;;;;;5073168;28;20209;-58
2022/09/20 07:17:32;;;;;;;4.77;1.90;;;15.40;99.90;;;;;;5072887;28;20232;-58
2022/09/20 07:19:59;;;;;;;9.80;2.13;;;15.70;99.90;;;;;;5073089;28;20258;-58
2022/09/20 07:22:26;;;;;;;7.23;2.40;;;16.00;99.90;;;;;;5072969;28;20205;-58
2022/09/20 07:24:53;;;;;;;6.67;2.20;;;16.10;99.90;;;;;;5072474;28;20204;-59
2022/09/20 07:27:20;;;;;;;4.60;2.13;;;16.20;99.90;;;;;;5072242;28;20221;-58
2022/09/20 07:29:48;;;;;;;5.73;2.20;;;16.00;99.90;;;;;;5072882;28;20205;-59
2022/09/20 07:32:16;;;;;;;9.80;3.23;;;15.70;99.90;;;;;;5072555;28;20495;-58
2022/09/20 07:34:43;;;;;;;6.13;3.30;;;15.60;99.90;;;;;;5071624;28;20668;-59
2022/09/20 07:37:10;;;;;;;7.53;4.00;;;15.60;99.90;;;;;;5072664;28;20228;-59
2022/09/20 07:39:37;;;;;;;6.57;3.70;;;15.80;99.90;;;;;;5072860;28;20204;-58
2022/09/20 07:42:05;;;;;;;5.10;2.38;;;16.60;99.90;;;;;;5072513;28;20205;-58
2022/09/20 07:44:32;;;;;;;8.20;3.25;;;17.20;99.90;;;;;;5072468;28;20295;-58
2022/09/20 07:47:00;;;;;;;6.13;3.10;;;17.60;99.90;;;;;;5072334;28;20256;-58
2022/09/20 07:49:29;;;;;;;6.07;2.60;;;17.80;99.90;;;;;;5072893;28;20228;-59
2022/09/20 07:51:57;;;;;;;7.00;2.78;;;17.60;99.90;;;;;;5072684;28;20719;-58
2022/09/20 07:54:26;;;;;;;6.20;2.80;;;17.40;99.90;;;;;;5072436;28;20209;-59
2022/09/20 07:56:52;;;;;;;4.30;2.80;;;17.60;99.90;;;;;;5072653;28;20229;-58
2022/09/20 07:59:19;;;;;;;8.25;3.00;;;17.70;99.90;;;;;;5072684;28;20224;-58
2022/09/20 08:01:46;;;;;;;6.28;3.25;;;17.70;99.90;;;;;;5072898;28;20212;-58
2022/09/20 08:04:14;;;;;;;6.40;2.88;;;17.80;99.90;;;;;;5072327;28;20212;-59
2022/09/20 08:06:42;;;;;;;8.45;3.15;;;17.90;99.90;;;;;;5072404;28;20228;-58
2022/09/20 08:09:11;;;;;;;7.53;3.15;;;17.50;99.90;;;;;;5072195;28;20236;-58
2022/09/20 08:11:39;;;;;;;9.15;3.72;;;17.10;99.90;;;;;;5072336;28;20264;-58
2022/09/20 08:14:06;;;;;;;11.15;3.40;;;16.90;99.90;;;;;;5071838;28;20205;-59
2022/09/20 08:16:38;;;;;;;8.45;3.20;;;16.70;99.90;;;;;;5072575;28;20236;-58
2022/09/20 08:19:05;;;;;;;6.30;2.75;;;16.50;99.90;;;;;;5072277;28;20231;-58
2022/09/20 08:21:34;;;;;;;7.67;2.87;;;16.20;99.90;;;;;;5072225;28;20619;-58
2022/09/20 08:24:02;;;;;;;6.80;2.83;;;15.80;99.90;;;;;;5072178;28;20209;-58
2022/09/20 08:26:31;;;;;;;4.47;2.53;;;15.90;99.90;;;;;;5072335;28;20216;-58
2022/09/20 08:29:00;;;;;;;6.70;2.33;;;16.10;99.90;;;;;;5072346;28;20232;-58
2022/09/20 08:31:30;;;;;;;10.17;2.80;;;16.00;99.90;;;;;;5072913;28;20204;-59
2022/09/20 08:33:57;;;;;;;5.65;2.25;;;16.10;99.90;;;;;;5072076;28;20209;-59
2022/09/20 08:36:26;;;;;;;7.82;2.28;;;16.30;99.90;;;;;;5073017;28;20266;-59
2022/09/20 08:38:54;;;;;;;5.75;2.50;;;16.60;99.90;;;;;;5072516;28;20225;-59
2022/09/20 08:41:24;;;;;;;8.23;2.20;;;16.80;99.90;;;;;;5072729;28;20216;-59
2022/09/20 08:43:55;;;;;;;5.43;2.30;;;17.00;99.90;;;;;;5072163;28;20208;-59
2022/09/20 08:46:27;;;;;;;7.53;2.50;;;16.80;99.90;;;;;;5072670;28;20255;-58
2022/09/20 08:48:54;;;;;;;5.40;2.17;;;16.70;99.90;;;;;;5076945;28;20204;-59
2022/09/20 08:51:22;;;;;;;7.97;3.40;;;16.80;99.90;;;;;;5077083;28;20215;-58
2022/09/20 08:53:52;;;;;;;5.70;2.10;;;16.90;99.90;;;;;;5075909;28;20699;-58
2022/09/20 08:56:21;;;;;;;6.50;2.28;;;17.10;99.90;;;;;;5076713;28;20211;-58
2022/09/20 08:58:48;;;;;;;9.50;2.28;;;17.10;99.90;;;;;;5076513;28;20221;-58
2022/09/20 09:01:21;;;;;;;24.80;3.67;;;17.30;99.90;;;;;;5076473;28;20220;-58
2022/09/20 09:03:51;;;;;;;5.50;2.22;;;17.40;99.90;;;;;;5075973;28;20676;-58
2022/09/20 09:06:21;;;;;;;9.20;1.75;;;17.60;99.90;;;;;;5076014;28;20201;-58
2022/09/20 09:08:50;;;;;;;4.28;1.90;;;17.80;99.90;;;;;;5076216;28;20212;-58
2022/09/20 09:11:22;;;;;;;9.18;2.05;;;17.80;99.90;;;;;;5075916;28;20201;-58
2022/09/20 09:13:53;;;;;;;7.18;1.77;;;17.80;99.90;;;;;;5075296;28;20208;-58
2022/09/20 09:16:22;;;;;;;7.53;1.73;;;17.90;99.90;;;;;;5075618;28;20212;-59
2022/09/20 09:18:50;;;;;;;9.20;2.00;;;18.00;99.90;;;;;;5075743;28;20225;-59
2022/09/20 09:21:20;;;;;;;4.68;1.83;;;18.00;99.90;;;;;;5075935;28;20211;-59
2022/09/20 09:23:52;;;;;;;4.85;1.70;;;18.00;99.90;;;;;;5075013;28;20209;-59
2022/09/20 09:26:22;;;;;;;3.65;1.60;;;17.90;99.90;;;;;;5075518;28;20197;-59
2022/09/20 09:29:07;;;;;;;6.30;1.55;;;17.80;99.90;;;;;;5075520;28;20212;-59
2022/09/20 09:31:34;;;;;;;6.45;1.90;;;17.80;99.90;;;;;;5075642;28;20201;-59
2022/09/20 09:34:01;;;;;;;4.35;1.63;;;17.90;99.90;;;;;;5075390;28;20212;-59
2022/09/20 09:36:28;;;;;;;8.57;1.88;;;18.00;99.90;;;;;;5075081;28;20233;-59
2022/09/20 09:39:15;;;;;;;3.08;1.10;;;17.90;99.90;;;;;;5075623;28;20239;-59
2022/09/20 09:41:45;;;;;;;5.47;1.88;;;17.50;99.90;;;;;;5075326;28;20209;-59
2022/09/20 09:44:21;;;;;;;6.53;1.77;;;17.10;99.90;;;;;;5074577;28;20227;-59
2022/09/20 09:46:49;;;;;;;5.43;1.73;;;16.80;99.90;;;;;;5074731;28;20601;-59
2022/09/20 09:49:18;;;;;;;5.63;1.55;;;16.60;99.90;;;;;;5075251;28;20201;-59
2022/09/20 09:52:03;;;;;;;3.83;1.80;;;16.60;99.90;;;;;;5074959;28;20211;-59
2022/09/20 09:54:32;;;;;;;5.32;1.63;;;16.80;99.90;;;;;;5074650;28;20305;-59
2022/09/20 09:57:16;;;;;;;7.63;1.42;;;17.40;99.90;;;;;;5074603;28;20231;-59
2022/09/20 09:59:59;;;;;;;3.03;1.20;;;18.10;99.90;;;;;;5075050;28;20316;-59
2022/09/20 10:03:02;;;;;;;6.20;1.50;;;18.80;99.90;;;;;;5074769;28;20215;-59
2022/09/20 10:05:35;;;;;;;8.60;1.80;;;19.00;99.90;;;;;;5074108;28;20208;-61
2022/09/20 10:08:17;;;;;;;6.75;1.67;;;18.90;99.90;;;;;;5069474;28;20227;-60
2022/09/20 10:10:59;;;;;;;11.43;1.58;;;18.80;99.90;;;;;;5033858;28;20221;-64
2022/09/20 10:13:36;;;;;;;5.60;1.65;;;18.70;99.90;;;;;;5034562;28;20249;-65
2022/09/20 10:16:12;;;;;;;6.13;1.30;;;18.30;99.90;;;;;;5035339;28;20224;-63
2022/09/20 10:18:49;;;;;;;7.55;1.48;;;17.90;99.90;;;;;;5035169;28;20226;-63
2022/09/20 10:21:30;;;;;;;5.97;1.90;;;17.60;99.90;;;;;;5035284;28;20239;-63
2022/09/20 10:24:12;;;;;;;5.18;1.50;;;17.50;99.90;;;;;;5036166;28;20514;-63
2022/09/20 10:27:18;;;;;;;5.85;1.65;;;17.30;99.90;;;;;;5034958;28;20240;-64
2022/09/20 10:29:58;;;;;;;5.05;1.30;;;17.50;99.90;;;;;;5035539;28;20198;-63
2022/09/20 10:32:39;;;;;;;8.95;2.17;;;17.80;99.90;;;;;;5034477;28;20248;-64
2022/09/20 10:35:22;;;;;;;2.88;0.90;;;18.20;99.30;;;;;;5033310;28;20205;-62
2022/09/20 10:38:02;;;;;;;4.55;1.30;;;18.40;96.70;;;;;;5034485;28;20313;-65
2022/09/20 10:43:30;;;;;;;2.72;1.10;;;18.90;96.80;;;;;;5032856;28;20225;-65
2022/09/20 10:46:14;;;;;;;4.22;1.20;;;19.20;97.20;;;;;;5034379;28;20210;-64
2022/09/20 10:48:47;;;;;;;7.05;1.38;;;19.30;97.30;;;;;;5033786;28;20253;-63
2022/09/20 10:51:25;;;;;;;6.43;1.80;;;19.40;97.10;;;;;;5033631;28;20669;-65
2022/09/20 10:54:05;;;;;;;3.17;1.23;;;19.30;97.40;;;;;;5035004;28;20221;-63
2022/09/20 10:56:36;;;;;;;4.82;1.50;;;19.50;97.80;;;;;;5033336;28;20213;-63
2022/09/20 10:59:19;;;;;;;7.43;1.63;;;19.70;97.60;;;;;;5033426;28;20276;-63
2022/09/20 11:02:01;;;;;;;4.63;1.45;;;19.90;97.40;;;;;;5032989;28;20586;-61
2022/09/20 11:04:57;;;;;;;3.85;1.50;;;20.20;95.70;;;;;;5032274;28;20286;-63
2022/09/20 11:07:39;;;;;;;6.60;1.48;;;20.20;95.00;;;;;;5018630;28;20237;-62
2022/09/20 11:10:15;;;;;;;5.20;1.48;;;20.00;95.50;;;;;;5033465;28;20256;-63
2022/09/20 11:12:50;;;;;;;4.50;1.35;;;20.00;94.90;;;;;;5033809;28;20214;-65
2022/09/20 11:15:22;;;;;;;3.38;1.40;;;19.90;94.90;;;;;;5033461;28;20220;-65
2022/09/20 11:17:59;;;;;;;6.35;2.10;;;19.70;95.60;;;;;;5061875;23;20695;-60
2022/09/20 11:20:29;;;;;;;7.50;1.77;;;19.40;96.20;;;;;;5051794;28;20635;-58
2022/09/20 11:23:01;;;;;;;6.72;1.65;;;19.20;96.30;;;;;;5051376;28;20213;-58
2022/09/20 11:25:37;;;;;;;4.55;1.48;;;19.10;96.90;;;;;;5050815;28;20236;-59
2022/09/20 11:28:12;;;;;;;3.67;1.58;;;18.90;96.20;;;;;;5051374;28;20221;-57
2022/09/20 11:30:48;;;;;;;3.55;1.20;;;18.70;97.00;;;;;;5051524;28;20572;-59
2022/09/20 11:33:20;;;;;;;5.60;1.45;;;18.40;93.00;;;;;;5050471;28;20201;-58
2022/09/20 11:35:51;;;;;;;3.50;1.15;;;18.30;93.70;;;;;;5050544;28;20213;-56
2022/09/20 11:38:23;;;;;;;4.25;1.38;;;18.40;94.20;;;;;;5050951;28;20237;-56
2022/09/20 11:40:55;;;;;;;6.97;2.85;;;18.60;93.30;;;;;;5050785;28;20236;-56
2022/09/20 11:43:29;;;;;;;9.80;2.03;;;18.60;93.40;;;;;;5049702;28;20665;-57
2022/09/20 11:45:59;;;;;;;5.28;1.60;;;18.90;93.80;;;;;;5050612;28;20217;-56
2022/09/20 11:48:30;;;;;;;3.33;1.10;;;19.50;93.40;;;;;;5050423;28;20723;-57
2022/09/20 11:51:33;;;;;;;5.90;1.50;;;20.10;92.80;;;;;;5051159;28;20209;-56
2022/09/20 11:54:33;;;;;;;9.43;2.67;;;20.50;92.70;;;;;;5016987;28;20259;-57
2022/09/20 11:57:00;;;;;;;3.95;1.38;;;20.80;92.90;;;;;;5050687;28;20628;-58
2022/09/20 11:59:32;;;;;;;4.72;1.65;;;20.80;92.50;;;;;;5050567;28;20225;-57
2022/09/20 12:02:01;;;;;;;3.83;1.60;;;20.50;92.60;;;;;;5049904;28;20246;-56
2022/09/20 12:04:31;;;;;;;4.40;1.38;;;20.30;92.40;;;;;;5049887;28;20220;-57
2022/09/20 12:07:01;;;;;;;5.55;1.33;;;20.30;92.20;;;;;;5050664;28;20709;-56
2022/09/20 12:09:32;;;;;;;4.07;1.40;;;20.30;91.80;;;;;;5050940;28;20251;-58
2022/09/20 12:12:13;;;;;;;14.85;2.30;;;20.40;92.40;;;;;;5050688;28;20205;-58
2022/09/20 12:14:40;;;;;;;3.63;1.20;;;20.50;90.80;;;;;;5049583;28;20301;-63
2022/09/20 12:17:48;;;;;;;4.72;1.13;;;20.20;90.30;;;;;;5050586;28;20228;-61
2022/09/20 12:20:52;;;;;;;7.05;3.30;;;20.00;90.30;;;;;;5050230;28;20221;-61
2022/09/20 12:24:01;;;;;;;5.65;1.60;;;19.90;90.20;;;;;;5053431;28;20215;-60
2022/09/20 12:26:55;;;;;;;4.15;1.50;;;19.70;90.40;;;;;;5029633;28;20209;-58
2022/09/20 12:30:13;;;;;;;5.75;1.48;;;19.50;89.40;;;;;;5054992;28;20202;-60
2022/09/20 12:32:55;;;;;;;5.85;1.27;;;18.80;90.80;;;;;;5053918;28;20263;-60
2022/09/20 12:35:56;;;;;;;4.57;1.38;;;18.10;91.20;;;;;;5053288;28;20233;-59
2022/09/20 12:38:48;;;;;;;4.55;1.40;;;17.60;92.50;;;;;;5054071;28;20221;-62
2022/09/20 12:41:17;;;;;;;2.20;1.13;;;17.40;93.20;;;;;;5054265;28;20210;-59
2022/09/20 12:44:22;;;;;;;6.32;1.50;;;17.40;93.90;;;;;;5053024;28;20285;-58
2022/09/20 12:46:53;;;;;;;3.30;1.10;;;17.60;94.60;;;;;;5049062;28;20673;-57
2022/09/20 12:55:12;;;;;;;4.90;1.70;;;18.20;95.20;;;;;;5032906;28;20241;-57
2022/09/20 12:57:40;;;;;;;6.68;1.80;;;18.10;96.10;;;;;;5034098;28;20570;-58
2022/09/20 13:00:27;;;;;;;3.90;1.50;;;17.90;96.60;;;;;;5033552;28;20223;-59
2022/09/20 13:02:59;;;;;;;4.70;1.73;;;17.70;97.10;;;;;;5033625;28;20194;-58
2022/09/20 13:05:36;;;;;;;4.82;1.50;;;17.50;97.50;;;;;;5032658;28;20276;-57
2022/09/20 13:08:14;;;;;;;5.63;1.25;;;17.20;98.00;;;;;;5033449;28;20648;-60
2022/09/20 13:10:47;;;;;;;2.75;1.27;;;17.20;98.40;;;;;;5033375;28;20214;-59
2022/09/20 13:13:30;;;;;;;8.13;1.75;;;17.30;98.30;;;;;;5032663;28;20233;-57
2022/09/20 13:16:00;;;;;;;6.13;1.27;;;17.30;98.70;;;;;;5033509;28;20628;-58
2022/09/20 13:18:28;;;;;;;3.83;1.80;;;17.50;98.80;;;;;;5033296;28;20674;-60
2022/09/20 13:21:01;;;;;;;4.90;1.52;;;17.40;99.10;;;;;;5033366;28;20234;-56
2022/09/20 13:23:31;;;;;;;4.75;1.42;;;17.40;99.20;;;;;;5032934;28;20213;-58
2022/09/20 13:25:58;;;;;;;7.53;1.92;;;17.50;99.40;;;;;;5033085;28;20233;-55
2022/09/20 13:28:31;;;;;;;7.55;1.50;;;17.50;99.30;;;;;;5033430;28;20226;-59
2022/09/20 13:31:24;;;;;;;3.45;1.65;;;17.40;99.00;;;;;;5033176;28;20673;-55
2022/09/20 13:33:51;;;;;;;6.30;1.30;;;17.50;98.70;;;;;;5031823;28;20582;-61
2022/09/20 13:36:26;;;;;;;4.85;1.50;;;17.50;98.40;;;;;;5032936;28;20206;-56
2022/09/20 13:38:55;;;;;;;4.20;1.40;;;17.60;97.70;;;;;;5032937;28;20325;-59
2022/09/20 13:41:22;;;;;;;3.38;1.30;;;17.60;97.80;;;;;;5033084;28;20268;-59
2022/09/20 13:43:50;;;;;;;3.97;1.20;;;17.70;97.00;;;;;;5032178;28;20293;-60
2022/09/20 13:46:23;;;;;;;2.85;1.30;;;17.60;95.00;;;;;;5032626;28;20206;-62
2022/09/20 13:48:54;;;;;;;3.58;1.17;;;17.70;95.50;;;;;;5033300;28;20234;-58
2022/09/20 13:51:26;;;;;;;5.13;1.52;;;17.60;94.60;;;;;;5032606;28;20245;-56